sensor_id;sensor_type;location;lat;lon;timestamp;P1;durP1;ratioP1;P2;durP2;ratioP2
23252;SDS011;11795;47.054;15.408;2023-04-24T00:00:00;5.9;;;5.3;;
23252;SDS011;11795;47.054;15.408;2023-04-24T00:02:00;6.6;;;5.9;;
23252;SDS011;11795;47.054;15.408;2023-04-24T00:04:02;6.6;;;5.9;;
23252;SDS011;11795;47.054;15.408;2023-04-24T00:06:01;6.1;;;5.5;;
23252;SDS011;11795;47.054;15.408;2023-04-24T00:08:00;6.1;;;5.5;;
23252;SDS011;11795;47.054;15.408;2023-04-24T00:10:00;6.1;;;5.5;;
23252;SDS011;11795;47.054;15.408;2023-04-24T00:12:02;7.0;;;6.2;;
23252;SDS011;11795;47.054;15.408;2023-04-24T00:14:00;7.0;;;6.2;;
23252;SDS011;11795;47.054;15.408;2023-04-24T00:16:00;6.8;;;5.5;;
23252;SDS011;11795;47.054;15.408;2023-04-24T00:18:01;6.8;;;5.5;;
23252;SDS011;11795;47.054;15.408;2023-04-24T00:20:01;6.8;;;5.5;;
23252;SDS011;11795;47.054;15.408;2023-04-24T00:22:00;5.6;;;4.4;;
23252;SDS011;11795;47.054;15.408;2023-04-24T00:24:00;5.6;;;4.4;;
23252;SDS011;11795;47.054;15.408;2023-04-24T00:26:00;6.3;;;5.2;;
23252;SDS011;11795;47.054;15.408;2023-04-24T00:28:00;6.3;;;5.2;;
23252;SDS011;11795;47.054;15.408;2023-04-24T00:30:00;6.3;;;5.2;;
23252;SDS011;11795;47.054;15.408;2023-04-24T00:32:00;5.8;;;5.2;;
23252;SDS011;11795;47.054;15.408;2023-04-24T00:34:00;5.8;;;5.2;;
23252;SDS011;11795;47.054;15.408;2023-04-24T00:36:00;7.1;;;5.2;;
23252;SDS011;11795;47.054;15.408;2023-04-24T00:38:00;7.1;;;5.2;;
23252;SDS011;11795;47.054;15.408;2023-04-24T00:40:00;7.1;;;5.2;;
23252;SDS011;11795;47.054;15.408;2023-04-24T00:42:01;6.4;;;5.2;;
23252;SDS011;11795;47.054;15.408;2023-04-24T00:44:00;6.4;;;5.2;;
23252;SDS011;11795;47.054;15.408;2023-04-24T00:46:01;7.4;;;5.8;;
23252;SDS011;11795;47.054;15.408;2023-04-24T00:48:00;7.4;;;5.8;;
23252;SDS011;11795;47.054;15.408;2023-04-24T00:50:01;7.4;;;5.8;;
23252;SDS011;11795;47.054;15.408;2023-04-24T00:52:01;6.2;;;5.3;;
23252;SDS011;11795;47.054;15.408;2023-04-24T00:54:00;6.2;;;5.3;;
23252;SDS011;11795;47.054;15.408;2023-04-24T00:56:00;6.4;;;5.6;;
23252;SDS011;11795;47.054;15.408;2023-04-24T00:58:00;6.4;;;5.6;;
23252;SDS011;11795;47.054;15.408;2023-04-24T01:00:00;6.4;;;5.6;;
23252;SDS011;11795;47.054;15.408;2023-04-24T01:02:00;6.6;;;5.3;;
23252;SDS011;11795;47.054;15.408;2023-04-24T01:04:00;6.6;;;5.3;;
23252;SDS011;11795;47.054;15.408;2023-04-24T01:06:00;8.2;;;5.5;;
23252;SDS011;11795;47.054;15.408;2023-04-24T01:08:00;8.2;;;5.5;;
23252;SDS011;11795;47.054;15.408;2023-04-24T01:10:00;8.2;;;5.5;;
23252;SDS011;11795;47.054;15.408;2023-04-24T01:12:00;6.4;;;5.4;;
23252;SDS011;11795;47.054;15.408;2023-04-24T01:14:00;6.4;;;5.4;;
23252;SDS011;11795;47.054;15.408;2023-04-24T01:16:00;6.4;;;5.4;;
23252;SDS011;11795;47.054;15.408;2023-04-24T01:18:00;6.8;;;5.5;;
23252;SDS011;11795;47.054;15.408;2023-04-24T01:20:00;6.8;;;5.5;;
23252;SDS011;11795;47.054;15.408;2023-04-24T01:22:01;6.4;;;5.1;;
23252;SDS011;11795;47.054;15.408;2023-04-24T01:24:00;6.4;;;5.1;;
23252;SDS011;11795;47.054;15.408;2023-04-24T01:26:00;6.4;;;5.1;;
23252;SDS011;11795;47.054;15.408;2023-04-24T01:28:00;6.6;;;4.9;;
23252;SDS011;11795;47.054;15.408;2023-04-24T01:30:00;6.6;;;4.9;;
23252;SDS011;11795;47.054;15.408;2023-04-24T01:32:00;5.1;;;4.3;;
23252;SDS011;11795;47.054;15.408;2023-04-24T01:34:00;5.1;;;4.3;;
23252;SDS011;11795;47.054;15.408;2023-04-24T01:36:01;5.1;;;4.3;;
23252;SDS011;11795;47.054;15.408;2023-04-24T01:38:00;6.1;;;4.5;;
23252;SDS011;11795;47.054;15.408;2023-04-24T01:40:00;6.1;;;4.5;;
23252;SDS011;11795;47.054;15.408;2023-04-24T01:42:00;4.8;;;3.9;;
23252;SDS011;11795;47.054;15.408;2023-04-24T01:44:00;4.8;;;3.9;;
23252;SDS011;11795;47.054;15.408;2023-04-24T01:46:00;4.8;;;3.9;;
23252;SDS011;11795;47.054;15.408;2023-04-24T01:48:00;5.9;;;5.0;;
23252;SDS011;11795;47.054;15.408;2023-04-24T01:50:00;5.9;;;5.0;;
23252;SDS011;11795;47.054;15.408;2023-04-24T01:52:00;4.8;;;4.3;;
23252;SDS011;11795;47.054;15.408;2023-04-24T01:54:00;4.8;;;4.3;;
23252;SDS011;11795;47.054;15.408;2023-04-24T01:56:00;4.8;;;4.3;;
23252;SDS011;11795;47.054;15.408;2023-04-24T01:58:00;5.5;;;4.1;;
23252;SDS011;11795;47.054;15.408;2023-04-24T02:00:00;5.5;;;4.1;;
23252;SDS011;11795;47.054;15.408;2023-04-24T02:02:00;5.0;;;4.5;;
23252;SDS011;11795;47.054;15.408;2023-04-24T02:04:00;5.0;;;4.5;;
23252;SDS011;11795;47.054;15.408;2023-04-24T02:06:00;5.0;;;4.5;;
23252;SDS011;11795;47.054;15.408;2023-04-24T02:08:00;5.0;;;4.4;;
23252;SDS011;11795;47.054;15.408;2023-04-24T02:10:00;5.0;;;4.4;;
23252;SDS011;11795;47.054;15.408;2023-04-24T02:12:00;5.2;;;4.7;;
23252;SDS011;11795;47.054;15.408;2023-04-24T02:14:00;5.2;;;4.7;;
23252;SDS011;11795;47.054;15.408;2023-04-24T02:16:00;5.2;;;4.7;;
23252;SDS011;11795;47.054;15.408;2023-04-24T02:18:00;6.3;;;5.4;;
23252;SDS011;11795;47.054;15.408;2023-04-24T02:20:00;6.3;;;5.4;;
23252;SDS011;11795;47.054;15.408;2023-04-24T02:22:00;5.8;;;5.2;;
23252;SDS011;11795;47.054;15.408;2023-04-24T02:24:01;5.8;;;5.2;;
23252;SDS011;11795;47.054;15.408;2023-04-24T02:26:00;5.8;;;5.2;;
23252;SDS011;11795;47.054;15.408;2023-04-24T02:28:00;7.7;;;6.3;;
23252;SDS011;11795;47.054;15.408;2023-04-24T02:30:00;7.7;;;6.3;;
23252;SDS011;11795;47.054;15.408;2023-04-24T02:32:00;8.1;;;6.9;;
23252;SDS011;11795;47.054;15.408;2023-04-24T02:34:00;8.1;;;6.9;;
23252;SDS011;11795;47.054;15.408;2023-04-24T02:36:00;8.1;;;6.9;;
23252;SDS011;11795;47.054;15.408;2023-04-24T02:38:00;5.7;;;5.1;;
23252;SDS011;11795;47.054;15.408;2023-04-24T02:40:00;5.7;;;5.1;;
23252;SDS011;11795;47.054;15.408;2023-04-24T02:42:01;5.3;;;4.8;;
23252;SDS011;11795;47.054;15.408;2023-04-24T02:44:00;5.3;;;4.8;;
23252;SDS011;11795;47.054;15.408;2023-04-24T02:46:00;5.3;;;4.8;;
23252;SDS011;11795;47.054;15.408;2023-04-24T02:48:00;5.5;;;5.0;;
23252;SDS011;11795;47.054;15.408;2023-04-24T02:50:01;5.5;;;5.0;;
23252;SDS011;11795;47.054;15.408;2023-04-24T02:52:00;6.9;;;6.2;;
23252;SDS011;11795;47.054;15.408;2023-04-24T02:54:00;6.9;;;6.2;;
23252;SDS011;11795;47.054;15.408;2023-04-24T02:56:00;6.9;;;6.2;;
23252;SDS011;11795;47.054;15.408;2023-04-24T02:58:00;6.1;;;5.4;;
23252;SDS011;11795;47.054;15.408;2023-04-24T03:00:00;6.1;;;5.4;;
23252;SDS011;11795;47.054;15.408;2023-04-24T03:02:00;5.4;;;4.8;;
23252;SDS011;11795;47.054;15.408;2023-04-24T03:04:00;5.4;;;4.8;;
23252;SDS011;11795;47.054;15.408;2023-04-24T03:06:00;5.4;;;4.8;;
23252;SDS011;11795;47.054;15.408;2023-04-24T03:08:00;5.7;;;5.1;;
23252;SDS011;11795;47.054;15.408;2023-04-24T03:10:00;5.7;;;5.1;;
23252;SDS011;11795;47.054;15.408;2023-04-24T03:12:00;8.3;;;6.8;;
23252;SDS011;11795;47.054;15.408;2023-04-24T03:14:00;8.3;;;6.8;;
23252;SDS011;11795;47.054;15.408;2023-04-24T03:16:00;8.3;;;6.8;;
23252;SDS011;11795;47.054;15.408;2023-04-24T03:18:00;7.2;;;6.1;;
23252;SDS011;11795;47.054;15.408;2023-04-24T03:20:01;7.2;;;6.1;;
23252;SDS011;11795;47.054;15.408;2023-04-24T03:22:01;6.2;;;5.6;;
23252;SDS011;11795;47.054;15.408;2023-04-24T03:24:00;6.2;;;5.6;;
23252;SDS011;11795;47.054;15.408;2023-04-24T03:26:00;6.2;;;5.6;;
23252;SDS011;11795;47.054;15.408;2023-04-24T03:28:00;5.2;;;4.7;;
23252;SDS011;11795;47.054;15.408;2023-04-24T03:30:00;5.2;;;4.7;;
23252;SDS011;11795;47.054;15.408;2023-04-24T03:32:00;4.8;;;4.4;;
23252;SDS011;11795;47.054;15.408;2023-04-24T03:34:00;4.8;;;4.4;;
23252;SDS011;11795;47.054;15.408;2023-04-24T03:36:00;4.8;;;4.4;;
23252;SDS011;11795;47.054;15.408;2023-04-24T03:38:00;5.2;;;4.7;;
23252;SDS011;11795;47.054;15.408;2023-04-24T03:40:00;5.2;;;4.7;;
23252;SDS011;11795;47.054;15.408;2023-04-24T03:42:01;8.7;;;6.0;;
23252;SDS011;11795;47.054;15.408;2023-04-24T03:44:00;8.7;;;6.0;;
23252;SDS011;11795;47.054;15.408;2023-04-24T03:46:00;8.7;;;6.0;;
23252;SDS011;11795;47.054;15.408;2023-04-24T03:48:00;7.4;;;6.6;;
23252;SDS011;11795;47.054;15.408;2023-04-24T03:50:00;7.4;;;6.6;;
23252;SDS011;11795;47.054;15.408;2023-04-24T03:52:00;6.3;;;5.5;;
23252;SDS011;11795;47.054;15.408;2023-04-24T03:54:00;6.3;;;5.5;;
23252;SDS011;11795;47.054;15.408;2023-04-24T03:56:00;6.3;;;5.5;;
23252;SDS011;11795;47.054;15.408;2023-04-24T03:58:00;7.9;;;7.1;;
23252;SDS011;11795;47.054;15.408;2023-04-24T04:00:01;7.9;;;7.1;;
23252;SDS011;11795;47.054;15.408;2023-04-24T04:02:00;7.8;;;7.0;;
23252;SDS011;11795;47.054;15.408;2023-04-24T04:04:00;7.8;;;7.0;;
23252;SDS011;11795;47.054;15.408;2023-04-24T04:06:00;7.8;;;7.0;;
23252;SDS011;11795;47.054;15.408;2023-04-24T04:08:00;8.2;;;7.4;;
23252;SDS011;11795;47.054;15.408;2023-04-24T04:10:00;8.2;;;7.4;;
23252;SDS011;11795;47.054;15.408;2023-04-24T04:12:00;7.7;;;6.9;;
23252;SDS011;11795;47.054;15.408;2023-04-24T04:14:00;7.7;;;6.9;;
23252;SDS011;11795;47.054;15.408;2023-04-24T04:16:00;7.7;;;6.9;;
23252;SDS011;11795;47.054;15.408;2023-04-24T04:18:00;7.0;;;6.3;;
23252;SDS011;11795;47.054;15.408;2023-04-24T04:20:01;7.0;;;6.3;;
23252;SDS011;11795;47.054;15.408;2023-04-24T04:22:00;8.5;;;7.6;;
23252;SDS011;11795;47.054;15.408;2023-04-24T04:24:00;8.5;;;7.6;;
23252;SDS011;11795;47.054;15.408;2023-04-24T04:26:01;8.5;;;7.6;;
23252;SDS011;11795;47.054;15.408;2023-04-24T04:28:02;8.4;;;7.2;;
23252;SDS011;11795;47.054;15.408;2023-04-24T04:30:05;8.4;;;7.2;;
23252;SDS011;11795;47.054;15.408;2023-04-24T04:32:01;9.3;;;7.1;;
23252;SDS011;11795;47.054;15.408;2023-04-24T04:34:01;9.3;;;7.1;;
23252;SDS011;11795;47.054;15.408;2023-04-24T04:36:01;9.3;;;7.1;;
23252;SDS011;11795;47.054;15.408;2023-04-24T04:38:00;8.6;;;7.7;;
23252;SDS011;11795;47.054;15.408;2023-04-24T04:40:01;8.6;;;7.7;;
23252;SDS011;11795;47.054;15.408;2023-04-24T04:42:00;7.4;;;6.7;;
23252;SDS011;11795;47.054;15.408;2023-04-24T04:44:00;7.4;;;6.7;;
23252;SDS011;11795;47.054;15.408;2023-04-24T04:46:00;7.4;;;6.7;;
23252;SDS011;11795;47.054;15.408;2023-04-24T04:48:00;8.2;;;7.4;;
23252;SDS011;11795;47.054;15.408;2023-04-24T04:50:00;8.2;;;7.4;;
23252;SDS011;11795;47.054;15.408;2023-04-24T04:52:00;7.7;;;6.9;;
23252;SDS011;11795;47.054;15.408;2023-04-24T04:54:00;7.7;;;6.9;;
23252;SDS011;11795;47.054;15.408;2023-04-24T04:56:00;7.7;;;6.9;;
23252;SDS011;11795;47.054;15.408;2023-04-24T04:58:00;8.0;;;7.2;;
23252;SDS011;11795;47.054;15.408;2023-04-24T05:00:00;8.0;;;7.2;;
23252;SDS011;11795;47.054;15.408;2023-04-24T05:02:00;7.2;;;6.5;;
23252;SDS011;11795;47.054;15.408;2023-04-24T05:04:00;7.2;;;6.5;;
23252;SDS011;11795;47.054;15.408;2023-04-24T05:06:01;7.2;;;6.5;;
23252;SDS011;11795;47.054;15.408;2023-04-24T05:08:00;8.3;;;7.5;;
23252;SDS011;11795;47.054;15.408;2023-04-24T05:10:00;8.3;;;7.5;;
23252;SDS011;11795;47.054;15.408;2023-04-24T05:12:02;8.3;;;7.4;;
23252;SDS011;11795;47.054;15.408;2023-04-24T05:14:00;8.3;;;7.4;;
23252;SDS011;11795;47.054;15.408;2023-04-24T05:16:00;8.3;;;7.4;;
23252;SDS011;11795;47.054;15.408;2023-04-24T05:18:00;7.3;;;6.6;;
23252;SDS011;11795;47.054;15.408;2023-04-24T05:20:00;7.3;;;6.6;;
23252;SDS011;11795;47.054;15.408;2023-04-24T05:22:03;8.9;;;8.0;;
23252;SDS011;11795;47.054;15.408;2023-04-24T05:24:00;8.9;;;8.0;;
23252;SDS011;11795;47.054;15.408;2023-04-24T05:26:00;8.9;;;8.0;;
23252;SDS011;11795;47.054;15.408;2023-04-24T05:28:00;8.8;;;7.9;;
23252;SDS011;11795;47.054;15.408;2023-04-24T05:30:00;8.8;;;7.9;;
23252;SDS011;11795;47.054;15.408;2023-04-24T05:32:00;10.8;;;9.7;;
23252;SDS011;11795;47.054;15.408;2023-04-24T05:34:00;10.8;;;9.7;;
23252;SDS011;11795;47.054;15.408;2023-04-24T05:36:00;10.8;;;9.7;;
23252;SDS011;11795;47.054;15.408;2023-04-24T05:38:00;10.8;;;9.7;;
23252;SDS011;11795;47.054;15.408;2023-04-24T05:40:00;10.8;;;9.7;;
23252;SDS011;11795;47.054;15.408;2023-04-24T05:42:01;9.7;;;8.7;;
23252;SDS011;11795;47.054;15.408;2023-04-24T05:44:00;9.7;;;8.7;;
23252;SDS011;11795;47.054;15.408;2023-04-24T05:46:00;9.7;;;8.7;;
23252;SDS011;11795;47.054;15.408;2023-04-24T05:48:00;9.7;;;8.8;;
23252;SDS011;11795;47.054;15.408;2023-04-24T05:50:00;9.7;;;8.8;;
23252;SDS011;11795;47.054;15.408;2023-04-24T05:52:00;9.6;;;8.6;;
23252;SDS011;11795;47.054;15.408;2023-04-24T05:54:01;9.6;;;8.6;;
23252;SDS011;11795;47.054;15.408;2023-04-24T05:56:00;9.6;;;8.6;;
23252;SDS011;11795;47.054;15.408;2023-04-24T05:58:00;9.5;;;8.6;;
23252;SDS011;11795;47.054;15.408;2023-04-24T06:00:00;9.5;;;8.6;;
23252;SDS011;11795;47.054;15.408;2023-04-24T06:02:00;10.8;;;9.7;;
23252;SDS011;11795;47.054;15.408;2023-04-24T06:04:00;10.8;;;9.7;;
23252;SDS011;11795;47.054;15.408;2023-04-24T06:06:00;10.8;;;9.7;;
23252;SDS011;11795;47.054;15.408;2023-04-24T06:08:00;13.1;;;11.0;;
23252;SDS011;11795;47.054;15.408;2023-04-24T06:10:00;13.1;;;11.0;;
23252;SDS011;11795;47.054;15.408;2023-04-24T06:12:00;11.9;;;10.7;;
23252;SDS011;11795;47.054;15.408;2023-04-24T06:14:00;11.9;;;10.7;;
23252;SDS011;11795;47.054;15.408;2023-04-24T06:16:00;11.9;;;10.7;;
23252;SDS011;11795;47.054;15.408;2023-04-24T06:18:00;13.4;;;11.1;;
23252;SDS011;11795;47.054;15.408;2023-04-24T06:20:00;13.4;;;11.1;;
23252;SDS011;11795;47.054;15.408;2023-04-24T06:22:00;12.8;;;11.5;;
23252;SDS011;11795;47.054;15.408;2023-04-24T06:24:00;12.8;;;11.5;;
23252;SDS011;11795;47.054;15.408;2023-04-24T06:26:00;12.8;;;11.5;;
23252;SDS011;11795;47.054;15.408;2023-04-24T06:28:01;15.4;;;11.7;;
23252;SDS011;11795;47.054;15.408;2023-04-24T06:30:00;15.4;;;11.7;;
23252;SDS011;11795;47.054;15.408;2023-04-24T06:32:00;14.6;;;11.6;;
23252;SDS011;11795;47.054;15.408;2023-04-24T06:34:01;14.6;;;11.6;;
23252;SDS011;11795;47.054;15.408;2023-04-24T06:36:00;14.6;;;11.6;;
23252;SDS011;11795;47.054;15.408;2023-04-24T06:38:00;13.3;;;11.3;;
23252;SDS011;11795;47.054;15.408;2023-04-24T06:40:00;13.3;;;11.3;;
23252;SDS011;11795;47.054;15.408;2023-04-24T06:42:00;13.1;;;11.0;;
23252;SDS011;11795;47.054;15.408;2023-04-24T06:44:00;13.1;;;11.0;;
23252;SDS011;11795;47.054;15.408;2023-04-24T06:46:00;13.1;;;11.0;;
23252;SDS011;11795;47.054;15.408;2023-04-24T06:48:00;10.2;;;9.2;;
23252;SDS011;11795;47.054;15.408;2023-04-24T06:50:00;10.2;;;9.2;;
23252;SDS011;11795;47.054;15.408;2023-04-24T06:52:00;9.9;;;8.9;;
23252;SDS011;11795;47.054;15.408;2023-04-24T06:54:00;9.9;;;8.9;;
23252;SDS011;11795;47.054;15.408;2023-04-24T06:56:01;9.9;;;8.9;;
23252;SDS011;11795;47.054;15.408;2023-04-24T06:58:00;12.8;;;10.1;;
23252;SDS011;11795;47.054;15.408;2023-04-24T07:00:00;12.8;;;10.1;;
23252;SDS011;11795;47.054;15.408;2023-04-24T07:02:00;16.0;;;10.4;;
23252;SDS011;11795;47.054;15.408;2023-04-24T07:04:00;16.0;;;10.4;;
23252;SDS011;11795;47.054;15.408;2023-04-24T07:06:00;16.0;;;10.4;;
23252;SDS011;11795;47.054;15.408;2023-04-24T07:08:00;14.5;;;10.7;;
23252;SDS011;11795;47.054;15.408;2023-04-24T07:10:00;14.5;;;10.7;;
23252;SDS011;11795;47.054;15.408;2023-04-24T07:12:00;14.3;;;10.0;;
23252;SDS011;11795;47.054;15.408;2023-04-24T07:14:00;14.3;;;10.0;;
23252;SDS011;11795;47.054;15.408;2023-04-24T07:16:00;14.3;;;10.0;;
23252;SDS011;11795;47.054;15.408;2023-04-24T07:18:00;12.1;;;10.2;;
23252;SDS011;11795;47.054;15.408;2023-04-24T07:20:00;12.1;;;10.2;;
23252;SDS011;11795;47.054;15.408;2023-04-24T07:22:00;11.3;;;9.9;;
23252;SDS011;11795;47.054;15.408;2023-04-24T07:24:01;11.3;;;9.9;;
23252;SDS011;11795;47.054;15.408;2023-04-24T07:26:00;11.3;;;9.9;;
23252;SDS011;11795;47.054;15.408;2023-04-24T07:28:00;12.4;;;10.0;;
23252;SDS011;11795;47.054;15.408;2023-04-24T07:30:01;12.4;;;10.0;;
23252;SDS011;11795;47.054;15.408;2023-04-24T07:32:00;10.9;;;9.8;;
23252;SDS011;11795;47.054;15.408;2023-04-24T07:34:00;10.9;;;9.8;;
23252;SDS011;11795;47.054;15.408;2023-04-24T07:36:00;10.9;;;9.8;;
23252;SDS011;11795;47.054;15.408;2023-04-24T07:38:00;13.6;;;10.5;;
23252;SDS011;11795;47.054;15.408;2023-04-24T07:40:00;13.6;;;10.5;;
23252;SDS011;11795;47.054;15.408;2023-04-24T07:42:02;11.9;;;10.3;;
23252;SDS011;11795;47.054;15.408;2023-04-24T07:44:00;11.9;;;10.3;;
23252;SDS011;11795;47.054;15.408;2023-04-24T07:46:00;11.9;;;10.3;;
23252;SDS011;11795;47.054;15.408;2023-04-24T07:48:00;11.0;;;9.2;;
23252;SDS011;11795;47.054;15.408;2023-04-24T07:50:00;11.0;;;9.2;;
23252;SDS011;11795;47.054;15.408;2023-04-24T07:52:02;9.4;;;8.5;;
23252;SDS011;11795;47.054;15.408;2023-04-24T07:54:01;9.4;;;8.5;;
23252;SDS011;11795;47.054;15.408;2023-04-24T07:56:00;9.4;;;8.5;;
23252;SDS011;11795;47.054;15.408;2023-04-24T07:58:00;9.1;;;8.2;;
23252;SDS011;11795;47.054;15.408;2023-04-24T08:00:02;9.1;;;8.2;;
23252;SDS011;11795;47.054;15.408;2023-04-24T08:02:01;9.1;;;8.2;;
23252;SDS011;11795;47.054;15.408;2023-04-24T08:04:00;8.9;;;7.9;;
23252;SDS011;11795;47.054;15.408;2023-04-24T08:06:00;8.9;;;7.9;;
23252;SDS011;11795;47.054;15.408;2023-04-24T08:08:00;9.8;;;8.8;;
23252;SDS011;11795;47.054;15.408;2023-04-24T08:10:00;9.8;;;8.8;;
23252;SDS011;11795;47.054;15.408;2023-04-24T08:12:01;9.8;;;8.8;;
23252;SDS011;11795;47.054;15.408;2023-04-24T08:14:00;10.2;;;9.2;;
23252;SDS011;11795;47.054;15.408;2023-04-24T08:16:00;10.2;;;9.2;;
23252;SDS011;11795;47.054;15.408;2023-04-24T08:18:00;11.6;;;9.9;;
23252;SDS011;11795;47.054;15.408;2023-04-24T08:20:01;11.6;;;9.9;;
23252;SDS011;11795;47.054;15.408;2023-04-24T08:22:00;11.6;;;9.9;;
23252;SDS011;11795;47.054;15.408;2023-04-24T08:24:05;11.2;;;10.0;;
23252;SDS011;11795;47.054;15.408;2023-04-24T08:26:00;11.2;;;10.0;;
23252;SDS011;11795;47.054;15.408;2023-04-24T08:28:01;11.1;;;9.4;;
23252;SDS011;11795;47.054;15.408;2023-04-24T08:30:00;11.1;;;9.4;;
23252;SDS011;11795;47.054;15.408;2023-04-24T08:32:01;11.1;;;9.4;;
23252;SDS011;11795;47.054;15.408;2023-04-24T08:34:00;8.7;;;7.8;;
23252;SDS011;11795;47.054;15.408;2023-04-24T08:36:01;8.7;;;7.8;;
23252;SDS011;11795;47.054;15.408;2023-04-24T08:38:00;6.6;;;5.9;;
23252;SDS011;11795;47.054;15.408;2023-04-24T08:40:00;6.6;;;5.9;;
23252;SDS011;11795;47.054;15.408;2023-04-24T08:42:05;6.6;;;5.9;;
23252;SDS011;11795;47.054;15.408;2023-04-24T08:44:01;6.5;;;5.4;;
23252;SDS011;11795;47.054;15.408;2023-04-24T08:46:01;6.5;;;5.4;;
23252;SDS011;11795;47.054;15.408;2023-04-24T08:48:01;6.4;;;5.3;;
23252;SDS011;11795;47.054;15.408;2023-04-24T08:50:02;6.4;;;5.3;;
23252;SDS011;11795;47.054;15.408;2023-04-24T08:52:00;6.4;;;5.3;;
23252;SDS011;11795;47.054;15.408;2023-04-24T08:54:00;5.7;;;5.2;;
23252;SDS011;11795;47.054;15.408;2023-04-24T08:56:01;5.7;;;5.2;;
23252;SDS011;11795;47.054;15.408;2023-04-24T08:58:00;5.3;;;4.8;;
23252;SDS011;11795;47.054;15.408;2023-04-24T09:00:00;5.3;;;4.8;;
23252;SDS011;11795;47.054;15.408;2023-04-24T09:02:00;5.3;;;4.8;;
23252;SDS011;11795;47.054;15.408;2023-04-24T09:04:01;5.6;;;4.9;;
23252;SDS011;11795;47.054;15.408;2023-04-24T09:06:00;5.6;;;4.9;;
23252;SDS011;11795;47.054;15.408;2023-04-24T09:08:00;5.8;;;4.7;;
23252;SDS011;11795;47.054;15.408;2023-04-24T09:10:01;5.8;;;4.7;;
23252;SDS011;11795;47.054;15.408;2023-04-24T09:12:00;5.8;;;4.7;;
23252;SDS011;11795;47.054;15.408;2023-04-24T09:14:00;5.9;;;5.3;;
23252;SDS011;11795;47.054;15.408;2023-04-24T09:16:00;5.9;;;5.3;;
23252;SDS011;11795;47.054;15.408;2023-04-24T09:18:01;5.9;;;4.7;;
23252;SDS011;11795;47.054;15.408;2023-04-24T09:20:00;5.9;;;4.7;;
23252;SDS011;11795;47.054;15.408;2023-04-24T09:22:00;5.9;;;4.7;;
23252;SDS011;11795;47.054;15.408;2023-04-24T09:24:01;5.7;;;5.2;;
23252;SDS011;11795;47.054;15.408;2023-04-24T09:26:01;5.7;;;5.2;;
23252;SDS011;11795;47.054;15.408;2023-04-24T09:28:01;3.4;;;3.1;;
23252;SDS011;11795;47.054;15.408;2023-04-24T09:30:01;3.4;;;3.1;;
23252;SDS011;11795;47.054;15.408;2023-04-24T09:32:06;3.4;;;3.1;;
23252;SDS011;11795;47.054;15.408;2023-04-24T09:34:01;2.7;;;1.8;;
23252;SDS011;11795;47.054;15.408;2023-04-24T09:36:00;2.7;;;1.8;;
23252;SDS011;11795;47.054;15.408;2023-04-24T09:38:00;1.5;;;1.3;;
23252;SDS011;11795;47.054;15.408;2023-04-24T09:40:08;1.5;;;1.3;;
23252;SDS011;11795;47.054;15.408;2023-04-24T09:42:01;1.5;;;1.3;;
23252;SDS011;11795;47.054;15.408;2023-04-24T09:44:10;1.6;;;1.0;;
23252;SDS011;11795;47.054;15.408;2023-04-24T09:46:04;1.6;;;1.0;;
23252;SDS011;11795;47.054;15.408;2023-04-24T09:48:01;1.0;;;0.9;;
23252;SDS011;11795;47.054;15.408;2023-04-24T09:50:01;1.0;;;0.9;;
23252;SDS011;11795;47.054;15.408;2023-04-24T09:52:02;1.0;;;0.9;;
23252;SDS011;11795;47.054;15.408;2023-04-24T09:54:00;1.2;;;0.9;;
23252;SDS011;11795;47.054;15.408;2023-04-24T09:56:01;1.2;;;0.9;;
23252;SDS011;11795;47.054;15.408;2023-04-24T09:58:00;0.9;;;0.7;;
23252;SDS011;11795;47.054;15.408;2023-04-24T10:00:00;0.9;;;0.7;;
23252;SDS011;11795;47.054;15.408;2023-04-24T10:02:00;0.9;;;0.7;;
23252;SDS011;11795;47.054;15.408;2023-04-24T10:04:00;0.6;;;0.6;;
23252;SDS011;11795;47.054;15.408;2023-04-24T10:06:01;0.6;;;0.6;;
23252;SDS011;11795;47.054;15.408;2023-04-24T10:08:01;0.7;;;0.6;;
23252;SDS011;11795;47.054;15.408;2023-04-24T10:10:00;0.7;;;0.6;;
23252;SDS011;11795;47.054;15.408;2023-04-24T10:12:02;0.7;;;0.6;;
23252;SDS011;11795;47.054;15.408;2023-04-24T10:14:00;0.4;;;0.4;;
23252;SDS011;11795;47.054;15.408;2023-04-24T10:16:00;0.4;;;0.4;;
23252;SDS011;11795;47.054;15.408;2023-04-24T10:18:00;0.7;;;0.6;;
23252;SDS011;11795;47.054;15.408;2023-04-24T10:20:00;0.7;;;0.6;;
23252;SDS011;11795;47.054;15.408;2023-04-24T10:22:00;0.7;;;0.6;;
23252;SDS011;11795;47.054;15.408;2023-04-24T10:24:03;0.6;;;0.5;;
23252;SDS011;11795;47.054;15.408;2023-04-24T10:26:00;0.6;;;0.5;;
23252;SDS011;11795;47.054;15.408;2023-04-24T10:28:01;1.5;;;0.9;;
23252;SDS011;11795;47.054;15.408;2023-04-24T10:30:00;1.5;;;0.9;;
23252;SDS011;11795;47.054;15.408;2023-04-24T10:32:00;1.5;;;0.9;;
23252;SDS011;11795;47.054;15.408;2023-04-24T10:34:00;1.0;;;0.5;;
23252;SDS011;11795;47.054;15.408;2023-04-24T10:36:00;1.0;;;0.5;;
23252;SDS011;11795;47.054;15.408;2023-04-24T10:38:03;0.4;;;0.4;;
23252;SDS011;11795;47.054;15.408;2023-04-24T10:40:00;0.4;;;0.4;;
23252;SDS011;11795;47.054;15.408;2023-04-24T10:42:00;0.4;;;0.4;;
23252;SDS011;11795;47.054;15.408;2023-04-24T10:44:04;0.9;;;0.6;;
23252;SDS011;11795;47.054;15.408;2023-04-24T10:46:00;0.9;;;0.6;;
23252;SDS011;11795;47.054;15.408;2023-04-24T10:48:02;1.2;;;0.7;;
23252;SDS011;11795;47.054;15.408;2023-04-24T10:50:00;1.2;;;0.7;;
23252;SDS011;11795;47.054;15.408;2023-04-24T10:52:01;1.2;;;0.7;;
23252;SDS011;11795;47.054;15.408;2023-04-24T10:54:00;0.8;;;0.7;;
23252;SDS011;11795;47.054;15.408;2023-04-24T10:56:02;0.8;;;0.7;;
23252;SDS011;11795;47.054;15.408;2023-04-24T10:58:01;1.0;;;0.8;;
23252;SDS011;11795;47.054;15.408;2023-04-24T11:02:00;1.0;;;0.8;;
23252;SDS011;11795;47.054;15.408;2023-04-24T11:04:02;1.1;;;0.9;;
23252;SDS011;11795;47.054;15.408;2023-04-24T11:06:01;1.1;;;0.9;;
23252;SDS011;11795;47.054;15.408;2023-04-24T11:10:01;0.9;;;0.8;;
23252;SDS011;11795;47.054;15.408;2023-04-24T11:12:03;0.9;;;0.8;;
23252;SDS011;11795;47.054;15.408;2023-04-24T11:14:01;1.0;;;0.7;;
23252;SDS011;11795;47.054;15.408;2023-04-24T11:18:00;3.2;;;0.8;;
23252;SDS011;11795;47.054;15.408;2023-04-24T11:20:01;3.2;;;0.8;;
23252;SDS011;11795;47.054;15.408;2023-04-24T11:22:01;3.2;;;0.8;;
23252;SDS011;11795;47.054;15.408;2023-04-24T11:26:09;0.7;;;0.6;;
23252;SDS011;11795;47.054;15.408;2023-04-24T11:28:04;1.0;;;0.6;;
23252;SDS011;11795;47.054;15.408;2023-04-24T11:30:01;1.0;;;0.6;;
23252;SDS011;11795;47.054;15.408;2023-04-24T11:32:06;1.0;;;0.6;;
23252;SDS011;11795;47.054;15.408;2023-04-24T11:34:05;0.9;;;0.6;;
23252;SDS011;11795;47.054;15.408;2023-04-24T11:36:01;0.9;;;0.6;;
23252;SDS011;11795;47.054;15.408;2023-04-24T11:38:02;0.7;;;0.6;;
23252;SDS011;11795;47.054;15.408;2023-04-24T11:40:00;0.7;;;0.6;;
23252;SDS011;11795;47.054;15.408;2023-04-24T11:42:01;0.7;;;0.6;;
23252;SDS011;11795;47.054;15.408;2023-04-24T11:44:00;1.1;;;0.5;;
23252;SDS011;11795;47.054;15.408;2023-04-24T11:46:00;1.1;;;0.5;;
23252;SDS011;11795;47.054;15.408;2023-04-24T11:48:00;0.7;;;0.5;;
23252;SDS011;11795;47.054;15.408;2023-04-24T11:50:01;0.7;;;0.5;;
23252;SDS011;11795;47.054;15.408;2023-04-24T11:52:00;0.7;;;0.5;;
23252;SDS011;11795;47.054;15.408;2023-04-24T11:54:00;0.7;;;0.5;;
23252;SDS011;11795;47.054;15.408;2023-04-24T11:56:02;0.7;;;0.5;;
23252;SDS011;11795;47.054;15.408;2023-04-24T11:58:01;0.9;;;0.5;;
23252;SDS011;11795;47.054;15.408;2023-04-24T12:00:00;0.9;;;0.5;;
23252;SDS011;11795;47.054;15.408;2023-04-24T12:02:00;0.9;;;0.5;;
23252;SDS011;11795;47.054;15.408;2023-04-24T12:04:01;0.6;;;0.4;;
23252;SDS011;11795;47.054;15.408;2023-04-24T12:06:08;0.6;;;0.4;;
23252;SDS011;11795;47.054;15.408;2023-04-24T12:08:00;0.7;;;0.5;;
23252;SDS011;11795;47.054;15.408;2023-04-24T12:10:00;0.7;;;0.5;;
23252;SDS011;11795;47.054;15.408;2023-04-24T12:12:01;0.7;;;0.5;;
23252;SDS011;11795;47.054;15.408;2023-04-24T12:14:09;0.6;;;0.4;;
23252;SDS011;11795;47.054;15.408;2023-04-24T12:16:01;0.6;;;0.4;;
23252;SDS011;11795;47.054;15.408;2023-04-24T12:18:00;0.6;;;0.4;;